Time;durP1;ratioP1;P1;durP2;ratioP2;P2;SDS_P1;SDS_P2;PMS_P1;PMS_P2;Temp;Humidity;BMP_temperature;BMP_pressure;BME280_temperature;BME280_humidity;BME280_pressure;Samples;Min_cycle;Max_cycle;Signal;HPM_P1;HPM_P2
2021/09/09 00:01:26;;;;;;;0.00;0.00;;;11.70;75.40;;;;;;5055872;28;20474;-73
2021/09/09 00:03:51;;;;;;;0.00;0.00;;;11.70;75.50;;;;;;5055402;28;20029;-73
2021/09/09 00:06:17;;;;;;;0.10;0.10;;;11.70;75.70;;;;;;5056847;28;20045;-72
2021/09/09 00:08:43;;;;;;;0.08;0.08;;;11.70;75.80;;;;;;5037169;28;20025;-73
2021/09/09 00:11:08;;;;;;;0.10;0.10;;;11.70;76.10;;;;;;5055689;28;20420;-73
2021/09/09 00:13:34;;;;;;;0.10;0.10;;;11.60;76.00;;;;;;5055330;28;20029;-72
2021/09/09 00:16:00;;;;;;;0.10;0.10;;;11.60;76.30;;;;;;5055331;28;20032;-72
2021/09/09 00:18:27;;;;;;;0.10;0.10;;;11.60;76.40;;;;;;5055033;28;20044;-73
2021/09/09 00:20:52;;;;;;;0.10;0.10;;;11.60;76.90;;;;;;5055369;28;20045;-72
2021/09/09 00:23:18;;;;;;;0.10;0.10;;;11.50;77.00;;;;;;5054989;28;20032;-73
2021/09/09 00:25:44;;;;;;;0.10;0.10;;;11.50;77.50;;;;;;5055260;28;20536;-73
2021/09/09 00:28:10;;;;;;;0.10;0.10;;;11.50;77.60;;;;;;5054470;28;20018;-73
2021/09/09 00:30:36;;;;;;;0.10;0.10;;;11.40;77.80;;;;;;5055117;28;20083;-73
2021/09/09 00:33:01;;;;;;;0.10;0.10;;;11.40;78.10;;;;;;5054837;28;20021;-73
2021/09/09 00:35:27;;;;;;;0.08;0.08;;;11.30;78.30;;;;;;5055161;28;20131;-73
2021/09/09 00:37:53;;;;;;;0.10;0.10;;;11.30;78.50;;;;;;5036632;28;20048;-73
2021/09/09 00:40:18;;;;;;;0.10;0.10;;;11.20;78.70;;;;;;5054657;28;20080;-74
2021/09/09 00:42:44;;;;;;;0.00;0.00;;;11.20;78.80;;;;;;5054373;28;20017;-73
2021/09/09 00:45:10;;;;;;;0.10;0.10;;;11.20;79.00;;;;;;5036668;28;20351;-72
2021/09/09 00:47:36;;;;;;;0.10;0.10;;;11.20;79.30;;;;;;5054426;28;20017;-72
2021/09/09 00:50:03;;;;;;;0.10;0.10;;;11.10;79.40;;;;;;5054391;28;20150;-73
2021/09/09 00:52:28;;;;;;;0.10;0.10;;;11.10;79.40;;;;;;5054223;28;20438;-72
2021/09/09 00:54:54;;;;;;;0.00;0.00;;;11.10;79.60;;;;;;5054456;28;20060;-73
2021/09/09 00:57:21;;;;;;;0.10;0.10;;;11.00;79.40;;;;;;5036245;28;20378;-73
2021/09/09 00:59:48;;;;;;;0.10;0.10;;;11.00;79.50;;;;;;5054304;28;20090;-72
2021/09/09 01:02:14;;;;;;;0.10;0.10;;;11.00;79.60;;;;;;5054227;28;20017;-72
2021/09/09 01:04:39;;;;;;;0.10;0.10;;;11.00;79.90;;;;;;5037436;28;20055;-72
2021/09/09 01:07:05;;;;;;;0.10;0.10;;;11.00;80.10;;;;;;5054024;28;20489;-72
2021/09/09 01:09:31;;;;;;;0.10;0.10;;;11.00;80.10;;;;;;5054036;28;20031;-72
2021/09/09 01:11:57;;;;;;;0.10;0.10;;;11.00;80.40;;;;;;5053774;28;20474;-72
2021/09/09 01:14:23;;;;;;;0.10;0.10;;;11.00;80.70;;;;;;5054080;28;20021;-72
2021/09/09 01:16:49;;;;;;;0.10;0.10;;;11.00;81.00;;;;;;5053902;28;20032;-72
2021/09/09 01:19:16;;;;;;;0.10;0.10;;;11.00;81.00;;;;;;5053671;28;20036;-72
2021/09/09 01:21:42;;;;;;;0.00;0.00;;;10.90;80.90;;;;;;5053775;28;20033;-72
2021/09/09 01:24:19;;;;;;;0.10;0.10;;;10.90;80.90;;;;;;5053516;28;20021;-72
2021/09/09 01:26:58;;;;;;;0.10;0.10;;;10.90;81.00;;;;;;5053831;28;20021;-72
2021/09/09 01:29:27;;;;;;;0.10;0.10;;;10.90;81.20;;;;;;5035796;28;20017;-72
2021/09/09 01:31:53;;;;;;;0.10;0.10;;;10.90;81.40;;;;;;5053609;28;20025;-73
2021/09/09 01:34:19;;;;;;;0.10;0.10;;;10.90;81.50;;;;;;5053482;28;20024;-73
2021/09/09 01:36:46;;;;;;;0.10;0.10;;;10.90;81.60;;;;;;5053644;28;20040;-72
2021/09/09 01:39:11;;;;;;;0.00;0.00;;;10.90;81.60;;;;;;5035135;28;20021;-73
2021/09/09 01:41:37;;;;;;;0.10;0.10;;;10.90;81.80;;;;;;5053362;28;20041;-72
2021/09/09 01:44:04;;;;;;;0.08;0.08;;;10.90;81.90;;;;;;5035736;28;20025;-72
2021/09/09 01:46:30;;;;;;;0.10;0.10;;;10.90;82.10;;;;;;5035780;28;20543;-72
2021/09/09 01:48:56;;;;;;;0.10;0.10;;;10.90;82.30;;;;;;5035497;28;20064;-73
2021/09/09 01:51:22;;;;;;;0.00;0.00;;;10.90;82.70;;;;;;5035816;28;20032;-73
2021/09/09 01:53:48;;;;;;;0.10;0.10;;;10.80;82.70;;;;;;5053388;28;20118;-72
2021/09/09 01:56:14;;;;;;;0.00;0.00;;;10.80;82.90;;;;;;5053709;28;20475;-72
2021/09/09 01:58:40;;;;;;;0.10;0.10;;;10.80;82.90;;;;;;5053302;28;20052;-72
2021/09/09 02:01:06;;;;;;;0.10;0.10;;;10.80;83.00;;;;;;5053458;28;20479;-72
2021/09/09 02:03:31;;;;;;;0.10;0.10;;;10.80;83.00;;;;;;5053249;28;20047;-73
2021/09/09 02:05:57;;;;;;;0.10;0.10;;;10.70;83.10;;;;;;5054815;28;20120;-73
2021/09/09 02:08:22;;;;;;;0.10;0.10;;;10.80;83.20;;;;;;5053244;28;20028;-72
2021/09/09 02:10:48;;;;;;;0.10;0.10;;;10.70;83.30;;;;;;5053501;28;20421;-72
2021/09/09 02:13:15;;;;;;;0.10;0.10;;;10.70;83.30;;;;;;5053007;28;20025;-72
2021/09/09 02:15:42;;;;;;;0.05;0.05;;;10.70;83.40;;;;;;5053711;28;20462;-72
2021/09/09 02:18:08;;;;;;;0.00;0.00;;;10.70;83.90;;;;;;5053089;28;20029;-73
2021/09/09 02:20:34;;;;;;;0.05;0.05;;;10.70;83.40;;;;;;5035294;28;20094;-72
2021/09/09 02:22:59;;;;;;;0.10;0.10;;;10.70;83.30;;;;;;5052967;28;20378;-72
2021/09/09 02:25:25;;;;;;;0.00;0.00;;;10.70;83.30;;;;;;5052873;28;20113;-72
2021/09/09 02:27:51;;;;;;;0.00;0.00;;;10.70;83.40;;;;;;5053024;28;20028;-72
2021/09/09 02:30:16;;;;;;;0.00;0.00;;;10.60;83.40;;;;;;5053407;28;20028;-72
2021/09/09 02:32:42;;;;;;;0.00;0.00;;;10.70;83.50;;;;;;5052929;28;20029;-72
2021/09/09 02:35:08;;;;;;;0.00;0.00;;;10.70;83.50;;;;;;5053302;28;20060;-72
2021/09/09 02:37:34;;;;;;;0.10;0.10;;;10.70;83.60;;;;;;5034986;28;20405;-72
2021/09/09 02:39:59;;;;;;;0.05;0.05;;;10.60;83.70;;;;;;5052878;28;20045;-73
2021/09/09 02:42:25;;;;;;;0.08;0.08;;;10.60;83.80;;;;;;5052745;28;20025;-72
2021/09/09 02:44:51;;;;;;;0.08;0.08;;;10.60;84.00;;;;;;5053068;28;20033;-72
2021/09/09 02:47:16;;;;;;;0.10;0.10;;;10.60;84.20;;;;;;5052706;28;20190;-72
2021/09/09 02:49:42;;;;;;;0.10;0.10;;;10.60;84.30;;;;;;5053904;28;20029;-72
2021/09/09 02:52:08;;;;;;;0.00;0.00;;;10.50;84.30;;;;;;5056526;28;20029;-72
2021/09/09 02:54:33;;;;;;;0.00;0.00;;;10.50;84.30;;;;;;5056667;28;20025;-72
2021/09/09 02:56:59;;;;;;;0.00;0.00;;;10.50;84.30;;;;;;5056402;28;20331;-72
2021/09/09 02:59:25;;;;;;;0.10;0.10;;;10.50;84.30;;;;;;5056594;28;20474;-72
2021/09/09 03:01:50;;;;;;;0.10;0.10;;;10.50;84.30;;;;;;5056295;28;20033;-73
2021/09/09 03:04:16;;;;;;;0.00;0.00;;;10.50;84.30;;;;;;5056261;28;20382;-72
2021/09/09 03:06:42;;;;;;;0.00;0.00;;;10.60;84.40;;;;;;5058380;28;20390;-73
2021/09/09 03:09:07;;;;;;;0.00;0.00;;;10.60;84.50;;;;;;5056022;28;20512;-72
2021/09/09 03:11:33;;;;;;;0.10;0.10;;;10.50;84.30;;;;;;5056247;28;20021;-72
2021/09/09 03:13:59;;;;;;;0.10;0.10;;;10.50;84.40;;;;;;5056224;28;20045;-72
2021/09/09 03:16:24;;;;;;;0.10;0.10;;;10.50;84.40;;;;;;5056693;28;20051;-72
2021/09/09 03:18:50;;;;;;;0.00;0.00;;;10.50;84.60;;;;;;5038223;28;20021;-74
2021/09/09 03:21:16;;;;;;;0.10;0.10;;;10.50;84.60;;;;;;5056612;28;20044;-73
2021/09/09 03:23:41;;;;;;;0.00;0.00;;;10.50;84.60;;;;;;5055961;28;20509;-73
2021/09/09 03:26:08;;;;;;;0.10;0.10;;;10.50;84.90;;;;;;5056367;28;20045;-72
2021/09/09 03:28:34;;;;;;;0.00;0.00;;;10.50;84.90;;;;;;5056022;28;20523;-72
2021/09/09 03:30:59;;;;;;;0.10;0.10;;;10.50;84.90;;;;;;5056463;28;20029;-73
2021/09/09 03:33:25;;;;;;;0.08;0.08;;;10.50;84.90;;;;;;5055924;28;20479;-73
2021/09/09 03:35:51;;;;;;;0.10;0.10;;;10.50;85.00;;;;;;5056252;28;20025;-73
2021/09/09 03:38:16;;;;;;;0.10;0.10;;;10.50;85.10;;;;;;5055828;28;20032;-72
2021/09/09 03:40:42;;;;;;;0.10;0.10;;;10.50;85.00;;;;;;5055887;28;20128;-73
2021/09/09 03:43:08;;;;;;;0.03;0.03;;;10.50;85.10;;;;;;5055585;28;20024;-73
2021/09/09 03:45:33;;;;;;;0.00;0.00;;;10.50;85.10;;;;;;5056014;28;20037;-73
2021/09/09 03:47:59;;;;;;;0.00;0.00;;;10.60;85.10;;;;;;5055521;28;20055;-72
2021/09/09 03:50:25;;;;;;;0.10;0.10;;;10.60;85.00;;;;;;5055674;28;20048;-72
2021/09/09 03:52:51;;;;;;;0.10;0.10;;;10.60;85.00;;;;;;5055380;28;20021;-72
2021/09/09 03:55:16;;;;;;;0.10;0.10;;;10.60;84.90;;;;;;5055824;28;20079;-72
2021/09/09 03:57:42;;;;;;;0.10;0.10;;;10.70;84.80;;;;;;5055327;28;20470;-72
2021/09/09 04:00:08;;;;;;;0.10;0.10;;;10.70;84.70;;;;;;5037315;28;20394;-72
2021/09/09 04:02:34;;;;;;;0.00;0.00;;;10.80;84.50;;;;;;5054484;28;20462;-72
2021/09/09 04:05:01;;;;;;;0.10;0.10;;;10.80;84.30;;;;;;5056634;28;20051;-72
2021/09/09 04:07:27;;;;;;;0.00;0.00;;;10.90;84.20;;;;;;5055695;28;20025;-73
2021/09/09 04:09:53;;;;;;;0.10;0.10;;;10.90;84.00;;;;;;5054708;28;20033;-72
2021/09/09 04:12:18;;;;;;;0.10;0.10;;;10.90;83.90;;;;;;5055112;28;20017;-72
2021/09/09 04:14:44;;;;;;;0.05;0.05;;;11.00;83.80;;;;;;5055123;28;20044;-72
2021/09/09 04:17:10;;;;;;;0.10;0.10;;;11.00;83.60;;;;;;5055130;28;20474;-73
2021/09/09 04:19:36;;;;;;;0.10;0.10;;;11.10;83.40;;;;;;5037199;28;20037;-75
2021/09/09 04:22:06;;;;;;;0.10;0.10;;;11.20;83.20;;;;;;5054877;28;20023;-75
2021/09/09 04:24:32;;;;;;;0.05;0.05;;;11.30;82.70;;;;;;5054947;28;20099;-74
2021/09/09 04:26:58;;;;;;;0.10;0.10;;;11.40;82.50;;;;;;5054958;28;20029;-74
2021/09/09 04:29:23;;;;;;;0.10;0.10;;;11.50;82.20;;;;;;5036893;28;20095;-73
2021/09/09 04:31:49;;;;;;;0.10;0.10;;;11.60;81.90;;;;;;5054549;28;20036;-74
2021/09/09 04:34:15;;;;;;;0.10;0.10;;;11.70;81.70;;;;;;5054309;28;20021;-74
2021/09/09 04:36:40;;;;;;;0.10;0.10;;;11.80;81.60;;;;;;5054660;28;20057;-74
2021/09/09 04:39:06;;;;;;;0.00;0.00;;;11.90;81.40;;;;;;5054158;28;20021;-74
2021/09/09 04:41:32;;;;;;;0.10;0.10;;;12.10;81.10;;;;;;5054260;28;20397;-74
2021/09/09 04:43:57;;;;;;;0.10;0.10;;;12.30;80.90;;;;;;5054466;28;20025;-74
2021/09/09 04:46:23;;;;;;;0.10;0.10;;;12.70;81.10;;;;;;5054831;28;20032;-74
2021/09/09 04:48:49;;;;;;;0.10;0.10;;;13.20;80.60;;;;;;5054150;28;20032;-74
2021/09/09 04:51:14;;;;;;;0.10;0.10;;;13.70;79.60;;;;;;5054351;28;20029;-74
2021/09/09 04:53:40;;;;;;;0.10;0.10;;;14.00;78.00;;;;;;5035981;28;20025;-74
2021/09/09 04:56:06;;;;;;;0.10;0.10;;;14.40;77.50;;;;;;5054295;28;20033;-74
2021/09/09 04:58:31;;;;;;;0.10;0.10;;;14.90;77.10;;;;;;5053055;28;20107;-74
2021/09/09 05:00:57;;;;;;;0.05;0.05;;;15.50;76.10;;;;;;5051226;28;20107;-74
2021/09/09 05:03:23;;;;;;;0.00;0.00;;;16.00;74.70;;;;;;5051415;28;20522;-72
2021/09/09 05:05:48;;;;;;;0.00;0.00;;;16.40;73.40;;;;;;5069590;22;20124;-74
2021/09/09 05:08:14;;;;;;;0.10;0.10;;;16.80;73.00;;;;;;5069256;28;20020;-75
2021/09/09 05:10:41;;;;;;;0.10;0.10;;;17.20;71.40;;;;;;5069119;28;20067;-76
2021/09/09 05:13:07;;;;;;;0.03;0.03;;;17.40;70.00;;;;;;5067642;28;20045;-76
2021/09/09 05:15:32;;;;;;;0.10;0.10;;;17.60;69.40;;;;;;5051579;28;20032;-77
2021/09/09 05:17:58;;;;;;;0.10;0.10;;;17.70;68.80;;;;;;5069533;28;20373;-76
2021/09/09 05:20:24;;;;;;;0.10;0.10;;;18.00;68.40;;;;;;5070315;28;20373;-76
2021/09/09 05:22:50;;;;;;;0.00;0.00;;;18.30;67.60;;;;;;5071028;28;20067;-75
2021/09/09 05:25:16;;;;;;;0.00;0.00;;;18.60;67.00;;;;;;5068825;28;20385;-75
2021/09/09 05:27:42;;;;;;;0.10;0.10;;;18.90;66.40;;;;;;5069102;28;20028;-76
2021/09/09 05:30:09;;;;;;;0.00;0.00;;;19.20;65.40;;;;;;5068972;28;20044;-77
2021/09/09 05:32:35;;;;;;;0.00;0.00;;;19.50;64.80;;;;;;5068323;28;20025;-75
2021/09/09 05:35:01;;;;;;;0.10;0.10;;;19.70;64.20;;;;;;5067873;28;20029;-73
2021/09/09 05:37:27;;;;;;;0.00;0.00;;;20.00;63.70;;;;;;5068443;28;20125;-76
2021/09/09 05:39:56;;;;;;;0.00;0.00;;;20.30;62.90;;;;;;5050385;28;20496;-73
2021/09/09 05:42:21;;;;;;;0.00;0.00;;;20.50;62.60;;;;;;5068942;28;20210;-77
2021/09/09 05:44:47;;;;;;;0.00;0.00;;;20.90;61.80;;;;;;5068401;28;20115;-78
2021/09/09 05:47:13;;;;;;;0.10;0.10;;;21.10;61.20;;;;;;5067616;28;20020;-77
2021/09/09 05:49:39;;;;;;;0.10;0.10;;;21.20;60.30;;;;;;5071219;28;20073;-77
2021/09/09 05:52:05;;;;;;;0.00;0.00;;;21.40;60.20;;;;;;5070908;28;20025;-78
2021/09/09 05:54:34;;;;;;;0.00;0.00;;;21.70;60.20;;;;;;5070073;28;20028;-75
2021/09/09 05:57:03;;;;;;;0.00;0.00;;;22.30;59.70;;;;;;5068367;28;20090;-78
2021/09/09 05:59:30;;;;;;;0.00;0.00;;;22.80;58.50;;;;;;5067063;28;20039;-75
2021/09/09 06:01:56;;;;;;;0.00;0.00;;;23.10;57.20;;;;;;5065987;28;20483;-75
2021/09/09 06:04:23;;;;;;;0.00;0.00;;;23.20;56.90;;;;;;5048513;28;20021;-76
2021/09/09 06:06:49;;;;;;;0.00;0.00;;;23.60;56.90;;;;;;5064669;22;20045;-77
2021/09/09 06:09:15;;;;;;;0.00;0.00;;;23.80;55.80;;;;;;5068054;28;20530;-77
2021/09/09 06:11:42;;;;;;;0.00;0.00;;;24.10;55.70;;;;;;5074032;28;20072;-79
2021/09/09 06:14:08;;;;;;;0.00;0.00;;;24.70;55.30;;;;;;5071667;28;20025;-78
2021/09/09 06:16:34;;;;;;;0.00;0.00;;;25.30;54.40;;;;;;5073081;28;20094;-76
2021/09/09 06:19:00;;;;;;;0.00;0.00;;;25.90;54.10;;;;;;5070436;28;20020;-77
2021/09/09 06:21:26;;;;;;;0.00;0.00;;;26.50;53.40;;;;;;5051690;28;20051;-78
2021/09/09 06:23:52;;;;;;;0.00;0.00;;;27.10;52.60;;;;;;5053510;28;20084;-77
2021/09/09 06:26:19;;;;;;;0.00;0.00;;;27.70;51.90;;;;;;5072329;28;20107;-78
2021/09/09 06:28:45;;;;;;;0.00;0.00;;;28.20;51.00;;;;;;5053822;28;20086;-78
2021/09/09 06:31:11;;;;;;;0.00;0.00;;;28.60;50.50;;;;;;5072931;28;20529;-77
2021/09/09 06:33:37;;;;;;;0.00;0.00;;;28.90;50.00;;;;;;5074301;28;20023;-76
2021/09/09 06:36:03;;;;;;;0.00;0.00;;;29.40;49.40;;;;;;5070606;28;20074;-76
2021/09/09 06:38:29;;;;;;;0.00;0.00;;;29.80;48.80;;;;;;5070889;28;20060;-78
2021/09/09 06:40:54;;;;;;;0.00;0.00;;;30.10;48.30;;;;;;5054742;28;20049;-78
2021/09/09 06:43:20;;;;;;;0.00;0.00;;;30.60;48.30;;;;;;5070393;28;20096;-78
2021/09/09 06:45:47;;;;;;;0.00;0.00;;;31.10;47.70;;;;;;5069530;28;20271;-77
2021/09/09 06:48:12;;;;;;;0.00;0.00;;;31.20;47.20;;;;;;5050402;28;20056;-77
2021/09/09 06:50:39;;;;;;;0.00;0.00;;;31.50;46.60;;;;;;5069216;28;20056;-76
2021/09/09 06:53:05;;;;;;;0.00;0.00;;;31.70;46.00;;;;;;5070733;28;20013;-75
2021/09/09 06:55:31;;;;;;;0.00;0.00;;;31.90;45.90;;;;;;5070170;28;20036;-77
2021/09/09 06:57:57;;;;;;;0.00;0.00;;;31.80;45.10;;;;;;5071113;28;20012;-76
2021/09/09 07:00:24;;;;;;;0.00;0.00;;;31.60;45.10;;;;;;5070671;28;20036;-75
2021/09/09 07:02:50;;;;;;;0.00;0.00;;;31.80;45.30;;;;;;5055018;28;20111;-77
2021/09/09 07:05:16;;;;;;;0.00;0.00;;;32.30;45.20;;;;;;5056919;28;20119;-76
2021/09/09 07:07:42;;;;;;;0.03;0.03;;;32.70;44.90;;;;;;5072873;28;20029;-76
2021/09/09 07:10:09;;;;;;;0.00;0.00;;;32.80;44.20;;;;;;5071998;28;20108;-76
2021/09/09 07:12:35;;;;;;;0.00;0.00;;;33.20;44.00;;;;;;5053782;28;20616;-76
2021/09/09 07:15:04;;;;;;;0.00;0.00;;;33.70;43.80;;;;;;5053626;28;20069;-77
2021/09/09 07:17:31;;;;;;;0.05;0.05;;;34.00;43.20;;;;;;5053355;28;20127;-76
2021/09/09 07:19:56;;;;;;;0.00;0.00;;;34.20;43.10;;;;;;5072166;28;20041;-76
2021/09/09 07:22:22;;;;;;;0.00;0.00;;;34.40;42.80;;;;;;5072629;28;20032;-76
2021/09/09 07:24:48;;;;;;;0.00;0.00;;;34.60;42.80;;;;;;5055770;28;20032;-76
2021/09/09 07:27:14;;;;;;;0.00;0.00;;;34.50;42.30;;;;;;5071607;28;20055;-77
2021/09/09 07:29:40;;;;;;;0.00;0.00;;;34.10;42.40;;;;;;5052035;28;20028;-73
2021/09/09 07:32:06;;;;;;;0.00;0.00;;;33.50;42.70;;;;;;5067814;28;20021;-76
2021/09/09 07:34:32;;;;;;;0.00;0.00;;;32.70;42.90;;;;;;5068709;28;20300;-76
2021/09/09 07:36:58;;;;;;;0.00;0.00;;;32.00;42.70;;;;;;5050015;28;20424;-78
2021/09/09 07:39:24;;;;;;;0.00;0.00;;;31.70;43.00;;;;;;5070101;28;20024;-76
2021/09/09 07:41:49;;;;;;;0.00;0.00;;;31.30;43.30;;;;;;5068813;28;20389;-74
2021/09/09 07:44:15;;;;;;;0.00;0.00;;;31.30;43.30;;;;;;5069299;28;20028;-74
2021/09/09 07:46:41;;;;;;;0.00;0.00;;;31.40;43.40;;;;;;5069163;28;20516;-72
2021/09/09 07:49:08;;;;;;;0.00;0.00;;;31.60;43.20;;;;;;5052908;28;20436;-74
2021/09/09 07:51:35;;;;;;;0.00;0.00;;;31.40;42.90;;;;;;5070199;28;20139;-74
2021/09/09 07:54:01;;;;;;;0.00;0.00;;;31.50;43.30;;;;;;5070674;28;20095;-75
2021/09/09 07:56:27;;;;;;;0.00;0.00;;;31.10;43.60;;;;;;5053826;28;20436;-76
2021/09/09 07:58:53;;;;;;;0.00;0.00;;;31.00;43.70;;;;;;5054586;28;20040;-75
2021/09/09 08:01:20;;;;;;;0.00;0.00;;;31.20;43.80;;;;;;5072405;28;20043;-73
2021/09/09 08:03:46;;;;;;;0.00;0.00;;;30.90;44.10;;;;;;5070337;28;20032;-73
2021/09/09 08:06:13;;;;;;;0.00;0.00;;;31.20;43.70;;;;;;5053772;28;20481;-72
2021/09/09 08:08:40;;;;;;;0.00;0.00;;;31.60;43.30;;;;;;5073609;28;20459;-74
2021/09/09 08:11:06;;;;;;;0.00;0.00;;;32.00;42.80;;;;;;5073106;28;20032;-75
2021/09/09 08:13:32;;;;;;;0.00;0.00;;;32.20;42.70;;;;;;5072651;28;20032;-74
2021/09/09 08:15:58;;;;;;;0.00;0.00;;;32.60;42.20;;;;;;5072352;28;20363;-77
2021/09/09 08:18:24;;;;;;;0.08;0.00;;;33.40;42.40;;;;;;5053481;28;20070;-76
2021/09/09 08:20:51;;;;;;;0.00;0.00;;;34.50;41.50;;;;;;5071392;28;20448;-75
2021/09/09 08:23:17;;;;;;;0.10;0.10;;;35.20;40.70;;;;;;5053424;28;20031;-74
2021/09/09 08:25:43;;;;;;;0.10;0.10;;;35.70;40.70;;;;;;5069472;28;20025;-74
2021/09/09 08:28:09;;;;;;;0.00;0.00;;;36.50;40.00;;;;;;5071065;28;20092;-75
2021/09/09 08:30:34;;;;;;;0.10;0.10;;;37.00;39.40;;;;;;5071631;28;20062;-77
2021/09/09 08:33:00;;;;;;;0.10;0.10;;;37.60;39.20;;;;;;5071554;28;20029;-74
2021/09/09 08:35:26;;;;;;;0.10;0.10;;;38.10;38.80;;;;;;5070955;28;20020;-76
2021/09/09 08:37:52;;;;;;;0.10;0.10;;;38.50;38.20;;;;;;5071497;28;20044;-76
2021/09/09 08:40:17;;;;;;;0.10;0.10;;;38.60;37.70;;;;;;5070783;28;20391;-75
2021/09/09 08:42:44;;;;;;;0.10;0.10;;;38.30;37.10;;;;;;5071751;28;20084;-75
2021/09/09 08:45:13;;;;;;;0.10;0.10;;;38.00;37.20;;;;;;5051515;28;20032;-74
2021/09/09 08:47:40;;;;;;;0.10;0.10;;;38.10;37.20;;;;;;5070348;28;20031;-75
2021/09/09 08:50:09;;;;;;;0.10;0.10;;;38.30;36.80;;;;;;5070616;28;20044;-76
2021/09/09 08:52:36;;;;;;;0.10;0.10;;;38.40;37.20;;;;;;5069746;28;20048;-75
2021/09/09 08:55:02;;;;;;;0.10;0.10;;;38.90;37.30;;;;;;5051172;28;20116;-76
2021/09/09 08:57:32;;;;;;;0.10;0.10;;;39.20;36.20;;;;;;5051746;28;20186;-77
2021/09/09 09:00:00;;;;;;;0.10;0.10;;;39.40;36.20;;;;;;5051100;28;20067;-77
2021/09/09 09:02:26;;;;;;;0.10;0.10;;;39.00;35.50;;;;;;5070703;28;20111;-77
2021/09/09 09:05:04;;;;;;;0.10;0.10;;;38.80;35.80;;;;;;5053203;28;20052;-76
2021/09/09 09:07:34;;;;;;;0.10;0.10;;;39.10;35.40;;;;;;5072678;28;20033;-77
2021/09/09 09:10:04;;;;;;;0.10;0.10;;;38.80;35.90;;;;;;5054867;28;20393;-77
2021/09/09 09:12:42;;;;;;;0.10;0.10;;;38.70;36.00;;;;;;5070820;28;20029;-76
2021/09/09 09:15:21;;;;;;;0.10;0.10;;;38.70;35.30;;;;;;5051187;28;20033;-76
2021/09/09 09:18:08;;;;;;;0.10;0.10;;;38.80;36.40;;;;;;5068663;28;20585;-75
2021/09/09 09:20:42;;;;;;;0.10;0.10;;;38.60;35.50;;;;;;5051834;28;20431;-76
2021/09/09 09:23:16;;;;;;;0.10;0.10;;;38.90;35.90;;;;;;5075228;28;20162;-77
2021/09/09 09:25:52;;;;;;;0.10;0.10;;;39.50;36.00;;;;;;5052831;28;20028;-75
2021/09/09 09:28:40;;;;;;;0.10;0.10;;;40.60;35.60;;;;;;5053045;28;20029;-77
2021/09/09 09:31:20;;;;;;;0.10;0.10;;;41.30;33.40;;;;;;5069728;28;20047;-77
2021/09/09 09:33:54;;;;;;;0.10;0.10;;;41.60;34.20;;;;;;5053108;28;20088;-77
2021/09/09 09:36:32;;;;;;;0.20;0.20;;;41.80;34.00;;;;;;5069634;28;20036;-77
2021/09/09 09:39:13;;;;;;;0.10;0.10;;;41.40;33.80;;;;;;5052547;28;20426;-76
2021/09/09 09:41:56;;;;;;;0.10;0.10;;;40.70;33.70;;;;;;5051578;28;20120;-76
2021/09/09 09:44:36;;;;;;;0.20;0.20;;;40.80;34.20;;;;;;5068523;28;20020;-75
2021/09/09 09:47:15;;;;;;;0.10;0.10;;;40.70;33.80;;;;;;5069938;28;20387;-76
2021/09/09 09:49:45;;;;;;;0.10;0.10;;;40.40;34.10;;;;;;5050999;28;20037;-75
2021/09/09 09:52:23;;;;;;;0.10;0.10;;;40.30;34.30;;;;;;5053546;28;20043;-75
2021/09/09 09:54:56;;;;;;;0.10;0.10;;;40.30;34.00;;;;;;5072226;28;20028;-75
2021/09/09 09:57:25;;;;;;;0.10;0.10;;;40.70;34.10;;;;;;5053916;28;20044;-75
2021/09/09 09:59:51;;;;;;;0.10;0.10;;;41.00;34.20;;;;;;5052611;28;20038;-74
2021/09/09 10:02:17;;;;;;;0.10;0.10;;;41.10;33.70;;;;;;5072354;28;20024;-75
2021/09/09 10:04:45;;;;;;;0.13;0.13;;;41.20;33.30;;;;;;5071678;28;20490;-74
2021/09/09 10:07:12;;;;;;;0.10;0.10;;;40.70;33.40;;;;;;5072102;28;20754;-75
2021/09/09 10:09:39;;;;;;;0.10;0.10;;;40.80;33.80;;;;;;5070639;28;20028;-75
2021/09/09 10:12:10;;;;;;;0.10;0.10;;;40.90;33.20;;;;;;5052766;28;20037;-76
2021/09/09 10:14:40;;;;;;;0.10;0.10;;;40.70;33.30;;;;;;5071540;28;20031;-74
2021/09/09 10:17:07;;;;;;;0.10;0.10;;;41.10;33.50;;;;;;5051583;28;20622;-76
2021/09/09 10:19:34;;;;;;;0.10;0.10;;;41.60;33.30;;;;;;5047824;28;20043;-74
2021/09/09 10:22:07;;;;;;;0.17;0.17;;;41.80;33.10;;;;;;5065835;28;20024;-75
2021/09/09 10:24:35;;;;;;;0.10;0.10;;;42.00;32.90;;;;;;5046049;28;20032;-76
2021/09/09 10:27:17;;;;;;;0.13;0.13;;;42.20;33.20;;;;;;5049322;28;20013;-76
2021/09/09 10:29:53;;;;;;;0.20;0.20;;;42.90;33.10;;;;;;5066837;28;20609;-74
2021/09/09 10:32:31;;;;;;;0.10;0.10;;;43.50;32.90;;;;;;5067336;28;20035;-76
2021/09/09 10:35:19;;;;;;;0.20;0.20;;;44.00;32.80;;;;;;5066769;28;20078;-75
2021/09/09 10:37:45;;;;;;;0.20;0.20;;;44.60;32.20;;;;;;5066397;28;20016;-75
2021/09/09 10:40:36;;;;;;;0.20;0.20;;;45.00;32.00;;;;;;5048018;28;20108;-78
2021/09/09 10:43:14;;;;;;;0.20;0.20;;;45.20;31.10;;;;;;5067532;28;20021;-79
2021/09/09 10:45:42;;;;;;;0.20;0.20;;;45.60;31.70;;;;;;5032754;28;20154;-75
2021/09/09 10:48:15;;;;;;;0.20;0.20;;;45.70;31.70;;;;;;5067865;28;20381;-76
2021/09/09 10:50:56;;;;;;;0.20;0.20;;;45.80;31.60;;;;;;5071026;28;20040;-74
2021/09/09 10:53:36;;;;;;;0.20;0.20;;;45.70;31.90;;;;;;5054668;28;20603;-75
2021/09/09 10:56:14;;;;;;;0.20;0.20;;;45.40;31.40;;;;;;5072181;28;20175;-76
2021/09/09 10:58:41;;;;;;;0.20;0.20;;;45.40;32.10;;;;;;5068757;28;20020;-74
2021/09/09 11:01:08;;;;;;;0.20;0.20;;;45.30;32.10;;;;;;5069193;28;20603;-76
2021/09/09 11:03:42;;;;;;;0.15;0.15;;;45.50;31.90;;;;;;5071799;28;20110;-77
2021/09/09 11:06:16;;;;;;;0.20;0.20;;;45.50;31.40;;;;;;5070417;28;20052;-75
2021/09/09 11:08:44;;;;;;;0.20;0.20;;;45.50;32.20;;;;;;5068970;28;20041;-77
2021/09/09 11:11:21;;;;;;;0.20;0.20;;;45.60;31.60;;;;;;5070159;28;20036;-76
2021/09/09 11:13:58;;;;;;;0.20;0.20;;;45.70;31.70;;;;;;5071518;28;20033;-75
2021/09/09 11:16:26;;;;;;;0.20;0.20;;;45.30;31.20;;;;;;5052187;28;20043;-74
2021/09/09 11:18:52;;;;;;;0.20;0.20;;;44.90;31.30;;;;;;5068972;28;20687;-75
2021/09/09 11:21:28;;;;;;;0.15;0.15;;;44.80;31.10;;;;;;5073073;28;20047;-74
2021/09/09 11:24:13;;;;;;;0.20;0.20;;;44.50;30.70;;;;;;5052980;28;20031;-73
2021/09/09 11:26:41;;;;;;;0.20;0.20;;;44.40;31.10;;;;;;5068025;28;20021;-73
2021/09/09 11:29:08;;;;;;;0.20;0.20;;;44.70;31.20;;;;;;5069647;28;20545;-75
2021/09/09 11:31:48;;;;;;;0.20;0.20;;;45.00;31.30;;;;;;5069414;28;20040;-75
2021/09/09 11:34:20;;;;;;;0.20;0.20;;;45.60;31.40;;;;;;5068439;28;20466;-76
2021/09/09 11:36:47;;;;;;;0.20;0.20;;;45.50;31.20;;;;;;5067797;28;20533;-75
2021/09/09 11:39:16;;;;;;;0.20;0.20;;;45.40;31.40;;;;;;5051274;28;20146;-74
2021/09/09 11:41:42;;;;;;;0.20;0.20;;;45.30;31.10;;;;;;5050729;28;20145;-75
2021/09/09 11:44:30;;;;;;;0.20;0.20;;;45.50;31.50;;;;;;5069049;28;20154;-74
2021/09/09 11:46:57;;;;;;;0.20;0.20;;;45.90;31.00;;;;;;5058434;28;20041;-74
2021/09/09 11:49:26;;;;;;;0.20;0.20;;;46.10;30.50;;;;;;5072836;28;20056;-77
2021/09/09 11:51:54;;;;;;;0.20;0.20;;;46.20;30.50;;;;;;5073755;28;20540;-78
2021/09/09 11:54:21;;;;;;;0.20;0.20;;;45.90;30.40;;;;;;5073792;28;20033;-76
2021/09/09 11:56:49;;;;;;;0.20;0.20;;;45.70;30.60;;;;;;5072013;28;20008;-75
2021/09/09 11:59:19;;;;;;;0.20;0.20;;;45.50;30.40;;;;;;5071462;28;20107;-79
2021/09/09 12:01:52;;;;;;;0.10;0.10;;;45.00;30.30;;;;;;5051411;28;20064;-75
2021/09/09 12:04:20;;;;;;;0.10;0.10;;;44.30;30.40;;;;;;5069824;28;20033;-76
2021/09/09 12:06:47;;;;;;;0.20;0.20;;;44.00;30.90;;;;;;5068523;28;20440;-75
2021/09/09 12:09:27;;;;;;;0.10;0.10;;;44.20;31.10;;;;;;5069627;28;20122;-75
2021/09/09 12:12:11;;;;;;;0.20;0.20;;;44.70;30.90;;;;;;5050260;28;20448;-75
2021/09/09 12:14:39;;;;;;;0.20;0.20;;;45.00;30.60;;;;;;5069519;28;20556;-75
2021/09/09 12:17:15;;;;;;;0.20;0.20;;;45.20;30.70;;;;;;5052775;28;20021;-75
2021/09/09 12:20:07;;;;;;;0.10;0.10;;;45.10;30.40;;;;;;5052782;28;20551;-75
2021/09/09 12:22:48;;;;;;;0.10;0.10;;;44.50;30.00;;;;;;5069457;28;20017;-74
2021/09/09 12:25:14;;;;;;;0.10;0.10;;;44.00;30.10;;;;;;5051624;28;20040;-75
2021/09/09 12:28:01;;;;;;;0.10;0.10;;;43.50;30.30;;;;;;5069931;28;20089;-73
2021/09/09 12:30:33;;;;;;;0.10;0.10;;;43.30;30.40;;;;;;5068080;28;20029;-76
2021/09/09 12:33:01;;;;;;;0.20;0.20;;;43.20;30.30;;;;;;5067909;28;20146;-74
2021/09/09 12:35:28;;;;;;;0.10;0.10;;;43.30;30.60;;;;;;5069111;28;20100;-75
2021/09/09 12:38:03;;;;;;;0.10;0.10;;;43.30;30.30;;;;;;5052656;28;20029;-77
2021/09/09 12:40:45;;;;;;;0.10;0.10;;;43.60;30.50;;;;;;5071033;28;20029;-75
2021/09/09 12:43:32;;;;;;;0.10;0.10;;;43.70;30.40;;;;;;5053816;28;20029;-77
2021/09/09 12:46:00;;;;;;;0.10;0.10;;;44.00;30.20;;;;;;5072221;28;20406;-75
2021/09/09 12:48:29;;;;;;;0.10;0.10;;;44.00;30.30;;;;;;5071649;28;20558;-75
2021/09/09 12:51:00;;;;;;;0.10;0.10;;;43.50;30.30;;;;;;5053303;28;20032;-75
2021/09/09 12:53:34;;;;;;;0.10;0.10;;;43.20;30.30;;;;;;5053071;28;20024;-74